Serenade Of The Seas — C6FV8 — position and weather

sailwx.info

Track history (hours):
 
Tides and Currents Weather Stations Pressure Air Temp Water Temp Dewpoint Dewpoint Depression Visibility Wind Speed Wind Dir Waves Ship Positions

Serenade Of The Seas

Operator: Royal Caribbean Cruises Ltd

Last reported at 2014-Nov-01 00:21 UTC. Time now 2014-Nov-01 13:02 UTC.
Position N 42°16' E 008°02'.

Length 294 m; draft 8.5 m.

Type: Ship. MMSI: 311492000.

Date/timePositionNaut miles runAvg speedWind from/ knotsBaromVisibWave heightAir tempDewpointWater temp
2014-Nov-01 00:21N 42°16' E 008°02'1112.5
2014-Oct-31 23:31N 42°26' E 007°57'1312.3
2014-Oct-31 22:27N 42°38' E 007°51'1112.7
2014-Oct-31 21:33N 42°49' E 007°45'1413.2
2014-Oct-31 20:30N 43°02' E 007°38'1212.4
2014-Oct-31 19:32N 43°13' E 007°33'1512.8
2014-Oct-31 18:22N 43°27' E 007°25'1012.7
2014-Oct-31 17:33N 43°37' E 007°20'5 4.6
2014-Oct-31 16:30N 43°41' E 007°19'0 0.0
2014-Oct-31 15:30N 43°41' E 007°19'0 0.0
2014-Oct-31 14:30N 43°41' E 007°19'0 0.0
2014-Oct-31 13:30N 43°41' E 007°19'0 0.0
2014-Oct-31 12:30N 43°41' E 007°19'0 0.0
2014-Oct-31 11:30N 43°41' E 007°19'0 0.0
2014-Oct-31 10:30N 43°41' E 007°19'0 0.0
2014-Oct-31 09:30N 43°41' E 007°19'0 0.0
2014-Oct-31 08:30N 43°41' E 007°19'0 0.0
2014-Oct-31 07:30N 43°41' E 007°19'0 0.0
2014-Oct-31 06:30N 43°41' E 007°19'1 1.1
2014-Oct-31 05:33N 43°40' E 007°19'1010.5
2014-Oct-31 04:33N 43°39' E 007°33'3911.4
2014-Oct-31 01:09N 43°36' E 008°26'712.2
2014-Oct-31 00:33N 43°36' E 008°36'1212.0
2014-Oct-30 23:33N 43°35' E 008°53'1211.6
2014-Oct-30 22:33N 43°34' E 009°09'1211.7
2014-Oct-30 21:33N 43°34' E 009°25'1211.6
2014-Oct-30 20:33N 43°33' E 009°41'1111.3
2014-Oct-30 19:33N 43°32' E 009°56'1111.4
2014-Oct-30 18:33N 43°31' E 010°12'5 4.6
2014-Oct-30 17:33N 43°33' E 010°18'0 0.0
2014-Oct-30 16:33N 43°33' E 010°18'0 0.0
2014-Oct-30 15:33N 43°33' E 010°18'0 0.0
2014-Oct-30 14:33N 43°33' E 010°18'0 0.0
2014-Oct-30 13:33N 43°33' E 010°18'0 0.0
2014-Oct-30 12:33N 43°33' E 010°18'0 0.0
2014-Oct-30 11:33N 43°33' E 010°18'0 0.0
2014-Oct-30 10:33N 43°33' E 010°18'0 0.0
2014-Oct-30 09:33N 43°33' E 010°18'0 0.0
2014-Oct-30 08:33N 43°33' E 010°18'0 0.0
2014-Oct-30 07:33N 43°33' E 010°18'0 0.0
2014-Oct-30 06:33N 43°33' E 010°18'0 0.0
2014-Oct-30 05:33N 43°33' E 010°18'6 6.3
2014-Oct-30 04:33N 43°28' E 010°13'1212.1
2014-Oct-30 03:33N 43°16' E 010°16'1212.0
2014-Oct-30 02:32N 43°04' E 010°21'368 9.0
2014-Oct-28 09:32N 38°25' E 015°37'1413.2
2014-Oct-28 08:30N 38°11' E 015°37'43411.3
2014-Oct-26 18:08N 36°18' E 024°24'915.2
2014-Oct-26 17:33N 36°21' E 024°34'1515.2
2014-Oct-26 16:34N 36°24' E 024°53'1615.8
2014-Oct-26 15:34N 36°28' E 025°12'1110.9
2014-Oct-26 14:32N 36°25' E 025°25'0 0.0
2014-Oct-26 13:33N 36°25' E 025°25'0 0.0
2014-Oct-26 12:33N 36°25' E 025°25'0 0.0
2014-Oct-26 11:32N 36°25' E 025°25'0 0.0
2014-Oct-26 10:33N 36°25' E 025°25'0 0.0
2014-Oct-26 09:32N 36°25' E 025°25'0 0.0
2014-Oct-26 08:33N 36°25' E 025°25'0 0.0
2014-Oct-26 07:30N 36°25' E 025°25'0 0.0
2014-Oct-26 06:33N 36°25' E 025°25'0 0.0
2014-Oct-26 05:33N 36°25' E 025°25'2 2.2
2014-Oct-26 04:33N 36°26' E 025°23'9 9.1
2014-Oct-26 03:34N 36°31' E 025°13'1010.0
2014-Oct-26 02:33N 36°32' E 025°01'10 9.6
2014-Oct-26 01:33N 36°35' E 024°49'1010.4
2014-Oct-26 00:33N 36°45' E 024°45'10 9.8
2014-Oct-25 23:33N 36°53' E 024°38'10 9.6
2014-Oct-25 22:33N 36°57' E 024°27'10 9.8
2014-Oct-25 21:33N 37°01' E 024°16'10 9.6
2014-Oct-25 20:33N 37°04' E 024°05'36 9.0
2014-Oct-25 16:32N 37°36' E 023°44'1616.9
2014-Oct-25 15:34N 37°51' E 023°36'5 4.9
2014-Oct-25 14:33N 37°56' E 023°38'0 0.0
2014-Oct-25 13:33N 37°56' E 023°38'0 0.0
2014-Oct-25 12:33N 37°56' E 023°38'0 0.0
2014-Oct-25 11:33N 37°56' E 023°38'0 0.0
2014-Oct-25 10:33N 37°56' E 023°38'0 0.0
2014-Oct-25 09:33N 37°56' E 023°38'0 0.0
2014-Oct-25 08:33N 37°56' E 023°38'0 0.0
2014-Oct-25 07:33N 37°56' E 023°38'0 0.0
2014-Oct-25 06:33N 37°56' E 023°38'0 0.0
2014-Oct-25 05:33N 37°56' E 023°38'0 0.0
2014-Oct-25 04:33N 37°56' E 023°38'0 0.0
2014-Oct-25 03:32N 37°56' E 023°38'0 0.0
2014-Oct-25 02:33N 37°56' E 023°38'3 2.9
2014-Oct-25 01:33N 37°54' E 023°37'1616.2
2014-Oct-25 00:33N 37°40' E 023°47'1716.4
2014-Oct-24 23:33N 37°36' E 024°07'2217.5
2014-Oct-24 22:16N 37°51' E 024°28'2614.9
2014-Oct-24 20:31N 38°00' E 024°59'1616.4
2014-Oct-24 19:33N 37°55' E 025°18'1717.0
2014-Oct-24 18:33N 37°54' E 025°40'14 0.4
2014-Oct-23 07:31N 37°52' E 025°57'10 9.9
2014-Oct-23 06:32N 37°47' E 025°47'1010.0
2014-Oct-23 05:33N 37°41' E 025°37'10 9.7
2014-Oct-23 04:33N 37°36' E 025°26'10 9.7
2014-Oct-23 03:33N 37°30' E 025°16'1211.5
2014-Oct-23 02:33N 37°22' E 025°07'1413.7
2014-Oct-23 01:34N 37°10' E 024°58'1413.7
2014-Oct-23 00:33N 36°57' E 024°53'1313.5
2014-Oct-22 23:34N 36°44' E 024°47'1413.6
2014-Oct-22 22:33N 36°33' E 024°36'1413.7
2014-Oct-22 21:33N 36°22' E 024°28'1414.1
2014-Oct-22 20:34N 36°08' E 024°23'1414.0
2014-Oct-22 19:33N 35°54' E 024°19'1414.2
2014-Oct-22 18:33N 35°41' E 024°15'  
Track history (hours):
 
Tides and Currents Weather Stations Pressure Air Temp Water Temp Dewpoint Dewpoint Depression Visibility Wind Speed Wind Dir Waves Ship Positions

Serenade Of The Seas

Operator: Royal Caribbean Cruises Ltd

Last reported at 2014-Nov-01 00:21 UTC. Time now 2014-Nov-01 13:02 UTC.
Position N 42°16' E 008°02'.

Length 294 m; draft 8.5 m.

Type: Ship. MMSI: 311492000.

Date/timePositionNaut miles runAvg speedWind from/ knotsBaromVisibWave heightAir tempDewpointWater temp
2014-Nov-01 00:21N 42°16' E 008°02'1112.5
2014-Oct-31 23:31N 42°26' E 007°57'1312.3
2014-Oct-31 22:27N 42°38' E 007°51'1112.7
2014-Oct-31 21:33N 42°49' E 007°45'1413.2
2014-Oct-31 20:30N 43°02' E 007°38'1212.4
2014-Oct-31 19:32N 43°13' E 007°33'1512.8
2014-Oct-31 18:22N 43°27' E 007°25'1012.7
2014-Oct-31 17:33N 43°37' E 007°20'5 4.6
2014-Oct-31 16:30N 43°41' E 007°19'0 0.0
2014-Oct-31 15:30N 43°41' E 007°19'0 0.0
2014-Oct-31 14:30N 43°41' E 007°19'0 0.0
2014-Oct-31 13:30N 43°41' E 007°19'0 0.0
2014-Oct-31 12:30N 43°41' E 007°19'0 0.0
2014-Oct-31 11:30N 43°41' E 007°19'0 0.0
2014-Oct-31 10:30N 43°41' E 007°19'0 0.0
2014-Oct-31 09:30N 43°41' E 007°19'0 0.0
2014-Oct-31 08:30N 43°41' E 007°19'0 0.0
2014-Oct-31 07:30N 43°41' E 007°19'0 0.0
2014-Oct-31 06:30N 43°41' E 007°19'1 1.1
2014-Oct-31 05:33N 43°40' E 007°19'1010.5
2014-Oct-31 04:33N 43°39' E 007°33'3911.4
2014-Oct-31 01:09N 43°36' E 008°26'712.2
2014-Oct-31 00:33N 43°36' E 008°36'1212.0
2014-Oct-30 23:33N 43°35' E 008°53'1211.6
2014-Oct-30 22:33N 43°34' E 009°09'1211.7
2014-Oct-30 21:33N 43°34' E 009°25'1211.6
2014-Oct-30 20:33N 43°33' E 009°41'1111.3
2014-Oct-30 19:33N 43°32' E 009°56'1111.4
2014-Oct-30 18:33N 43°31' E 010°12'5 4.6
2014-Oct-30 17:33N 43°33' E 010°18'0 0.0
2014-Oct-30 16:33N 43°33' E 010°18'0 0.0
2014-Oct-30 15:33N 43°33' E 010°18'0 0.0
2014-Oct-30 14:33N 43°33' E 010°18'0 0.0
2014-Oct-30 13:33N 43°33' E 010°18'0 0.0
2014-Oct-30 12:33N 43°33' E 010°18'0 0.0
2014-Oct-30 11:33N 43°33' E 010°18'0 0.0
2014-Oct-30 10:33N 43°33' E 010°18'0 0.0
2014-Oct-30 09:33N 43°33' E 010°18'0 0.0
2014-Oct-30 08:33N 43°33' E 010°18'0 0.0
2014-Oct-30 07:33N 43°33' E 010°18'0 0.0
2014-Oct-30 06:33N 43°33' E 010°18'0 0.0
2014-Oct-30 05:33N 43°33' E 010°18'6 6.3
2014-Oct-30 04:33N 43°28' E 010°13'1212.1
2014-Oct-30 03:33N 43°16' E 010°16'1212.0
2014-Oct-30 02:32N 43°04' E 010°21'368 9.0
2014-Oct-28 09:32N 38°25' E 015°37'1413.2
2014-Oct-28 08:30N 38°11' E 015°37'43411.3
2014-Oct-26 18:08N 36°18' E 024°24'915.2
2014-Oct-26 17:33N 36°21' E 024°34'1515.2
2014-Oct-26 16:34N 36°24' E 024°53'1615.8
2014-Oct-26 15:34N 36°28' E 025°12'1110.9
2014-Oct-26 14:32N 36°25' E 025°25'0 0.0
2014-Oct-26 13:33N 36°25' E 025°25'0 0.0
2014-Oct-26 12:33N 36°25' E 025°25'0 0.0
2014-Oct-26 11:32N 36°25' E 025°25'0 0.0
2014-Oct-26 10:33N 36°25' E 025°25'0 0.0
2014-Oct-26 09:32N 36°25' E 025°25'0 0.0
2014-Oct-26 08:33N 36°25' E 025°25'0 0.0
2014-Oct-26 07:30N 36°25' E 025°25'0 0.0
2014-Oct-26 06:33N 36°25' E 025°25'0 0.0
2014-Oct-26 05:33N 36°25' E 025°25'2 2.2
2014-Oct-26 04:33N 36°26' E 025°23'9 9.1
2014-Oct-26 03:34N 36°31' E 025°13'1010.0
2014-Oct-26 02:33N 36°32' E 025°01'10 9.6
2014-Oct-26 01:33N 36°35' E 024°49'1010.4
2014-Oct-26 00:33N 36°45' E 024°45'10 9.8
2014-Oct-25 23:33N 36°53' E 024°38'10 9.6
2014-Oct-25 22:33N 36°57' E 024°27'10 9.8
2014-Oct-25 21:33N 37°01' E 024°16'10 9.6
2014-Oct-25 20:33N 37°04' E 024°05'36 9.0
2014-Oct-25 16:32N 37°36' E 023°44'1616.9
2014-Oct-25 15:34N 37°51' E 023°36'5 4.9
2014-Oct-25 14:33N 37°56' E 023°38'0 0.0
2014-Oct-25 13:33N 37°56' E 023°38'0 0.0
2014-Oct-25 12:33N 37°56' E 023°38'0 0.0
2014-Oct-25 11:33N 37°56' E 023°38'0 0.0
2014-Oct-25 10:33N 37°56' E 023°38'0 0.0
2014-Oct-25 09:33N 37°56' E 023°38'0 0.0
2014-Oct-25 08:33N 37°56' E 023°38'0 0.0
2014-Oct-25 07:33N 37°56' E 023°38'0 0.0
2014-Oct-25 06:33N 37°56' E 023°38'0 0.0
2014-Oct-25 05:33N 37°56' E 023°38'0 0.0
2014-Oct-25 04:33N 37°56' E 023°38'0 0.0
2014-Oct-25 03:32N 37°56' E 023°38'0 0.0
2014-Oct-25 02:33N 37°56' E 023°38'3 2.9
2014-Oct-25 01:33N 37°54' E 023°37'1616.2
2014-Oct-25 00:33N 37°40' E 023°47'1716.4
2014-Oct-24 23:33N 37°36' E 024°07'2217.5
2014-Oct-24 22:16N 37°51' E 024°28'2614.9
2014-Oct-24 20:31N 38°00' E 024°59'1616.4
2014-Oct-24 19:33N 37°55' E 025°18'1717.0
2014-Oct-24 18:33N 37°54' E 025°40'14 0.4
2014-Oct-23 07:31N 37°52' E 025°57'10 9.9
2014-Oct-23 06:32N 37°47' E 025°47'1010.0
2014-Oct-23 05:33N 37°41' E 025°37'10 9.7
2014-Oct-23 04:33N 37°36' E 025°26'10 9.7
2014-Oct-23 03:33N 37°30' E 025°16'1211.5
2014-Oct-23 02:33N 37°22' E 025°07'1413.7
2014-Oct-23 01:34N 37°10' E 024°58'1413.7
2014-Oct-23 00:33N 36°57' E 024°53'1313.5
2014-Oct-22 23:34N 36°44' E 024°47'1413.6
2014-Oct-22 22:33N 36°33' E 024°36'1413.7
2014-Oct-22 21:33N 36°22' E 024°28'1414.1
2014-Oct-22 20:34N 36°08' E 024°23'1414.0
2014-Oct-22 19:33N 35°54' E 024°19'1414.2
2014-Oct-22 18:33N 35°41' E 024°15'  

Dump ship's entire track history